sensor_id;sensor_type;location;lat;lon;timestamp;temperature;humidity
56771;DHT22;42641;59.794;17.616;2023-05-10T00:00:29;9.80;99.20
56771;DHT22;42641;59.794;17.616;2023-05-10T00:02:56;9.80;99.20
56771;DHT22;42641;59.794;17.616;2023-05-10T00:05:22;9.80;99.20
56771;DHT22;42641;59.794;17.616;2023-05-10T00:07:49;9.80;99.70
56771;DHT22;42641;59.794;17.616;2023-05-10T00:10:15;9.80;99.90
56771;DHT22;42641;59.794;17.616;2023-05-10T00:12:42;9.80;99.50
56771;DHT22;42641;59.794;17.616;2023-05-10T00:15:09;9.80;99.50
56771;DHT22;42641;59.794;17.616;2023-05-10T00:17:35;9.70;99.90
56771;DHT22;42641;59.794;17.616;2023-05-10T00:20:02;9.70;99.90
56771;DHT22;42641;59.794;17.616;2023-05-10T00:22:31;9.70;99.70
56771;DHT22;42641;59.794;17.616;2023-05-10T00:24:58;9.70;99.70
56771;DHT22;42641;59.794;17.616;2023-05-10T00:27:25;9.70;99.60
56771;DHT22;42641;59.794;17.616;2023-05-10T00:29:51;9.70;99.90
56771;DHT22;42641;59.794;17.616;2023-05-10T00:32:18;9.60;99.90
56771;DHT22;42641;59.794;17.616;2023-05-10T00:34:44;9.60;99.90
56771;DHT22;42641;59.794;17.616;2023-05-10T00:37:12;9.50;99.90
56771;DHT22;42641;59.794;17.616;2023-05-10T00:39:38;9.50;99.90
56771;DHT22;42641;59.794;17.616;2023-05-10T00:42:05;9.50;99.90
56771;DHT22;42641;59.794;17.616;2023-05-10T00:44:31;9.50;99.90
56771;DHT22;42641;59.794;17.616;2023-05-10T00:46:59;9.50;99.90
56771;DHT22;42641;59.794;17.616;2023-05-10T00:49:25;9.40;99.90
56771;DHT22;42641;59.794;17.616;2023-05-10T00:51:52;9.40;99.90
56771;DHT22;42641;59.794;17.616;2023-05-10T00:54:18;9.40;99.90
56771;DHT22;42641;59.794;17.616;2023-05-10T00:56:45;9.40;99.90
56771;DHT22;42641;59.794;17.616;2023-05-10T00:59:18;9.40;99.90
56771;DHT22;42641;59.794;17.616;2023-05-10T01:01:45;9.30;99.90
56771;DHT22;42641;59.794;17.616;2023-05-10T01:04:13;9.30;99.90
56771;DHT22;42641;59.794;17.616;2023-05-10T01:06:40;9.30;99.90
56771;DHT22;42641;59.794;17.616;2023-05-10T01:09:07;9.30;99.90
56771;DHT22;42641;59.794;17.616;2023-05-10T01:11:38;9.20;99.90
56771;DHT22;42641;59.794;17.616;2023-05-10T01:14:06;9.20;99.90
56771;DHT22;42641;59.794;17.616;2023-05-10T01:16:36;9.20;99.90
56771;DHT22;42641;59.794;17.616;2023-05-10T01:19:11;9.10;99.90
56771;DHT22;42641;59.794;17.616;2023-05-10T01:30:43;9.10;99.90
56771;DHT22;42641;59.794;17.616;2023-05-10T01:41:05;8.90;99.90
56771;DHT22;42641;59.794;17.616;2023-05-10T01:43:55;8.90;99.90
56771;DHT22;42641;59.794;17.616;2023-05-10T01:46:35;8.90;99.90
56771;DHT22;42641;59.794;17.616;2023-05-10T01:49:32;8.90;99.90
56771;DHT22;42641;59.794;17.616;2023-05-10T01:52:00;8.80;99.90
56771;DHT22;42641;59.794;17.616;2023-05-10T01:54:31;8.80;99.90
56771;DHT22;42641;59.794;17.616;2023-05-10T01:57:03;8.80;99.90
56771;DHT22;42641;59.794;17.616;2023-05-10T01:59:34;8.80;99.90
56771;DHT22;42641;59.794;17.616;2023-05-10T02:02:04;8.80;99.90
56771;DHT22;42641;59.794;17.616;2023-05-10T02:04:33;8.70;99.90
56771;DHT22;42641;59.794;17.616;2023-05-10T02:07:01;8.70;99.90
56771;DHT22;42641;59.794;17.616;2023-05-10T02:09:30;8.60;99.90
56771;DHT22;42641;59.794;17.616;2023-05-10T02:12:00;8.60;99.90
56771;DHT22;42641;59.794;17.616;2023-05-10T02:14:30;8.60;99.90
56771;DHT22;42641;59.794;17.616;2023-05-10T02:16:59;8.50;99.90
56771;DHT22;42641;59.794;17.616;2023-05-10T02:19:28;8.50;99.90
56771;DHT22;42641;59.794;17.616;2023-05-10T02:21:57;8.50;99.90
56771;DHT22;42641;59.794;17.616;2023-05-10T02:24:27;8.40;99.90
56771;DHT22;42641;59.794;17.616;2023-05-10T02:26:54;8.40;99.90
56771;DHT22;42641;59.794;17.616;2023-05-10T02:29:25;8.40;99.90
56771;DHT22;42641;59.794;17.616;2023-05-10T02:31:53;8.40;99.90
56771;DHT22;42641;59.794;17.616;2023-05-10T02:34:21;8.30;99.90
56771;DHT22;42641;59.794;17.616;2023-05-10T02:36:51;8.30;99.90
56771;DHT22;42641;59.794;17.616;2023-05-10T02:39:19;8.30;99.90
56771;DHT22;42641;59.794;17.616;2023-05-10T02:41:48;8.30;99.90
56771;DHT22;42641;59.794;17.616;2023-05-10T02:44:17;8.30;99.90
56771;DHT22;42641;59.794;17.616;2023-05-10T02:46:45;8.30;99.90
56771;DHT22;42641;59.794;17.616;2023-05-10T02:49:11;8.40;99.90
56771;DHT22;42641;59.794;17.616;2023-05-10T02:51:42;8.40;99.90
56771;DHT22;42641;59.794;17.616;2023-05-10T02:54:19;8.40;99.90
56771;DHT22;42641;59.794;17.616;2023-05-10T02:56:51;8.40;99.90
56771;DHT22;42641;59.794;17.616;2023-05-10T02:59:18;8.40;99.90
56771;DHT22;42641;59.794;17.616;2023-05-10T03:01:45;8.40;99.90
56771;DHT22;42641;59.794;17.616;2023-05-10T03:04:12;8.40;99.90
56771;DHT22;42641;59.794;17.616;2023-05-10T03:06:40;8.40;99.90
56771;DHT22;42641;59.794;17.616;2023-05-10T03:09:07;8.30;99.90
56771;DHT22;42641;59.794;17.616;2023-05-10T03:11:59;8.40;99.90
56771;DHT22;42641;59.794;17.616;2023-05-10T03:17:00;8.40;99.90
56771;DHT22;42641;59.794;17.616;2023-05-10T03:19:34;8.40;99.90
56771;DHT22;42641;59.794;17.616;2023-05-10T03:22:08;8.40;99.90
56771;DHT22;42641;59.794;17.616;2023-05-10T03:24:39;8.40;99.90
56771;DHT22;42641;59.794;17.616;2023-05-10T03:27:08;8.40;99.90
56771;DHT22;42641;59.794;17.616;2023-05-10T03:29:35;8.50;99.90
56771;DHT22;42641;59.794;17.616;2023-05-10T03:32:02;8.50;99.90
56771;DHT22;42641;59.794;17.616;2023-05-10T03:34:31;8.50;99.90
56771;DHT22;42641;59.794;17.616;2023-05-10T03:36:58;8.60;99.90
56771;DHT22;42641;59.794;17.616;2023-05-10T03:39:26;8.60;99.90
56771;DHT22;42641;59.794;17.616;2023-05-10T03:41:57;8.70;99.90
56771;DHT22;42641;59.794;17.616;2023-05-10T03:44:26;8.70;99.90
56771;DHT22;42641;59.794;17.616;2023-05-10T03:46:52;8.80;99.90
56771;DHT22;42641;59.794;17.616;2023-05-10T03:49:19;8.80;99.90
56771;DHT22;42641;59.794;17.616;2023-05-10T03:51:45;8.90;99.90
56771;DHT22;42641;59.794;17.616;2023-05-10T03:54:12;8.90;99.90
56771;DHT22;42641;59.794;17.616;2023-05-10T03:56:38;9.00;99.90
56771;DHT22;42641;59.794;17.616;2023-05-10T03:59:05;9.00;99.90
56771;DHT22;42641;59.794;17.616;2023-05-10T04:01:34;9.10;99.90
56771;DHT22;42641;59.794;17.616;2023-05-10T04:04:00;9.20;99.90
56771;DHT22;42641;59.794;17.616;2023-05-10T04:06:27;9.20;99.90
56771;DHT22;42641;59.794;17.616;2023-05-10T04:08:54;9.30;99.90
56771;DHT22;42641;59.794;17.616;2023-05-10T04:11:21;9.30;99.90
56771;DHT22;42641;59.794;17.616;2023-05-10T04:13:51;9.40;99.90
56771;DHT22;42641;59.794;17.616;2023-05-10T04:16:17;9.50;99.90
56771;DHT22;42641;59.794;17.616;2023-05-10T04:18:43;9.50;99.90
56771;DHT22;42641;59.794;17.616;2023-05-10T04:21:13;9.60;99.90
56771;DHT22;42641;59.794;17.616;2023-05-10T04:23:40;9.70;99.90
56771;DHT22;42641;59.794;17.616;2023-05-10T04:26:07;9.70;99.90
56771;DHT22;42641;59.794;17.616;2023-05-10T04:28:33;9.80;99.90
56771;DHT22;42641;59.794;17.616;2023-05-10T04:31:05;9.90;99.90
56771;DHT22;42641;59.794;17.616;2023-05-10T04:33:32;9.90;99.90
56771;DHT22;42641;59.794;17.616;2023-05-10T04:35:59;10.00;99.90
56771;DHT22;42641;59.794;17.616;2023-05-10T04:38:26;10.10;99.90
56771;DHT22;42641;59.794;17.616;2023-05-10T04:40:53;10.10;99.90
56771;DHT22;42641;59.794;17.616;2023-05-10T04:43:20;10.20;99.90
56771;DHT22;42641;59.794;17.616;2023-05-10T04:45:46;10.20;99.90
56771;DHT22;42641;59.794;17.616;2023-05-10T04:48:13;10.30;99.90
56771;DHT22;42641;59.794;17.616;2023-05-10T04:50:39;10.40;99.90
56771;DHT22;42641;59.794;17.616;2023-05-10T04:53:06;10.50;99.90
56771;DHT22;42641;59.794;17.616;2023-05-10T04:55:32;10.60;99.90
56771;DHT22;42641;59.794;17.616;2023-05-10T04:57:59;10.60;99.90
56771;DHT22;42641;59.794;17.616;2023-05-10T05:00:25;10.70;99.90
56771;DHT22;42641;59.794;17.616;2023-05-10T05:02:52;10.80;99.90
56771;DHT22;42641;59.794;17.616;2023-05-10T05:05:18;10.90;99.90
56771;DHT22;42641;59.794;17.616;2023-05-10T05:07:44;11.00;99.90
56771;DHT22;42641;59.794;17.616;2023-05-10T05:10:11;11.10;99.90
56771;DHT22;42641;59.794;17.616;2023-05-10T05:12:37;11.20;99.90
56771;DHT22;42641;59.794;17.616;2023-05-10T05:15:04;11.30;99.90
56771;DHT22;42641;59.794;17.616;2023-05-10T05:17:31;11.40;99.90
56771;DHT22;42641;59.794;17.616;2023-05-10T05:19:57;11.40;99.90
56771;DHT22;42641;59.794;17.616;2023-05-10T05:22:24;11.50;99.90
56771;DHT22;42641;59.794;17.616;2023-05-10T05:24:54;11.60;99.90
56771;DHT22;42641;59.794;17.616;2023-05-10T05:27:20;11.70;99.90
56771;DHT22;42641;59.794;17.616;2023-05-10T05:29:52;11.90;99.90
56771;DHT22;42641;59.794;17.616;2023-05-10T05:32:18;12.00;99.90
56771;DHT22;42641;59.794;17.616;2023-05-10T05:34:45;12.10;99.90
56771;DHT22;42641;59.794;17.616;2023-05-10T05:37:16;12.20;99.90
56771;DHT22;42641;59.794;17.616;2023-05-10T05:39:44;12.30;99.90
56771;DHT22;42641;59.794;17.616;2023-05-10T05:42:11;12.40;99.90
56771;DHT22;42641;59.794;17.616;2023-05-10T05:44:38;12.50;99.90
56771;DHT22;42641;59.794;17.616;2023-05-10T05:47:05;12.60;99.90
56771;DHT22;42641;59.794;17.616;2023-05-10T05:49:32;12.60;99.90
56771;DHT22;42641;59.794;17.616;2023-05-10T05:52:03;12.50;99.90
56771;DHT22;42641;59.794;17.616;2023-05-10T05:54:30;12.50;99.90
56771;DHT22;42641;59.794;17.616;2023-05-10T05:56:58;12.60;99.90
56771;DHT22;42641;59.794;17.616;2023-05-10T05:59:25;12.70;99.90
56771;DHT22;42641;59.794;17.616;2023-05-10T06:01:51;12.80;99.90
56771;DHT22;42641;59.794;17.616;2023-05-10T06:04:19;12.90;99.90
56771;DHT22;42641;59.794;17.616;2023-05-10T06:06:45;13.00;99.90
56771;DHT22;42641;59.794;17.616;2023-05-10T06:09:12;13.10;99.90
56771;DHT22;42641;59.794;17.616;2023-05-10T06:11:38;13.20;99.90
56771;DHT22;42641;59.794;17.616;2023-05-10T06:14:05;13.30;99.90
56771;DHT22;42641;59.794;17.616;2023-05-10T06:16:36;13.40;99.90
56771;DHT22;42641;59.794;17.616;2023-05-10T06:19:03;13.50;99.90
56771;DHT22;42641;59.794;17.616;2023-05-10T06:21:29;13.60;99.90
56771;DHT22;42641;59.794;17.616;2023-05-10T06:23:56;13.70;99.90
56771;DHT22;42641;59.794;17.616;2023-05-10T06:26:23;13.80;99.90
56771;DHT22;42641;59.794;17.616;2023-05-10T06:28:49;13.90;99.90
56771;DHT22;42641;59.794;17.616;2023-05-10T06:31:16;14.00;99.90
56771;DHT22;42641;59.794;17.616;2023-05-10T06:33:42;14.10;99.90
56771;DHT22;42641;59.794;17.616;2023-05-10T06:36:09;14.20;99.90
56771;DHT22;42641;59.794;17.616;2023-05-10T06:38:35;14.30;99.90
56771;DHT22;42641;59.794;17.616;2023-05-10T06:41:02;14.40;99.90
56771;DHT22;42641;59.794;17.616;2023-05-10T06:43:28;14.50;99.20
56771;DHT22;42641;59.794;17.616;2023-05-10T06:45:55;14.60;98.90
56771;DHT22;42641;59.794;17.616;2023-05-10T06:48:21;14.70;99.10
56771;DHT22;42641;59.794;17.616;2023-05-10T06:50:48;14.80;99.60
56771;DHT22;42641;59.794;17.616;2023-05-10T06:53:14;14.90;98.70
56771;DHT22;42641;59.794;17.616;2023-05-10T06:55:41;15.00;98.90
56771;DHT22;42641;59.794;17.616;2023-05-10T06:58:07;15.00;98.80
56771;DHT22;42641;59.794;17.616;2023-05-10T07:00:34;15.10;98.60
56771;DHT22;42641;59.794;17.616;2023-05-10T07:03:00;15.20;98.00
56771;DHT22;42641;59.794;17.616;2023-05-10T07:05:27;15.30;97.80
56771;DHT22;42641;59.794;17.616;2023-05-10T07:07:54;15.40;97.10
56771;DHT22;42641;59.794;17.616;2023-05-10T07:10:20;15.40;97.00
56771;DHT22;42641;59.794;17.616;2023-05-10T07:12:46;15.50;96.90
56771;DHT22;42641;59.794;17.616;2023-05-10T07:15:13;15.60;97.10
56771;DHT22;42641;59.794;17.616;2023-05-10T07:17:39;15.60;97.30
56771;DHT22;42641;59.794;17.616;2023-05-10T07:20:06;15.70;96.30
56771;DHT22;42641;59.794;17.616;2023-05-10T07:22:33;15.80;96.80
56771;DHT22;42641;59.794;17.616;2023-05-10T07:24:59;15.90;96.70
56771;DHT22;42641;59.794;17.616;2023-05-10T07:27:26;15.90;96.70
56771;DHT22;42641;59.794;17.616;2023-05-10T07:29:52;16.00;97.10
56771;DHT22;42641;59.794;17.616;2023-05-10T07:32:19;16.10;97.40
56771;DHT22;42641;59.794;17.616;2023-05-10T07:34:45;16.10;96.20
56771;DHT22;42641;59.794;17.616;2023-05-10T07:37:12;16.00;97.10
56771;DHT22;42641;59.794;17.616;2023-05-10T07:39:38;16.10;97.70
56771;DHT22;42641;59.794;17.616;2023-05-10T07:42:05;16.20;98.10
56771;DHT22;42641;59.794;17.616;2023-05-10T07:44:31;16.40;97.30
56771;DHT22;42641;59.794;17.616;2023-05-10T07:46:58;16.60;96.80
56771;DHT22;42641;59.794;17.616;2023-05-10T07:49:25;16.70;96.30
56771;DHT22;42641;59.794;17.616;2023-05-10T07:51:51;16.70;94.50
56771;DHT22;42641;59.794;17.616;2023-05-10T07:54:18;16.70;93.50
56771;DHT22;42641;59.794;17.616;2023-05-10T07:56:44;16.70;93.50
56771;DHT22;42641;59.794;17.616;2023-05-10T07:59:16;16.90;93.50
56771;DHT22;42641;59.794;17.616;2023-05-10T08:01:43;17.10;93.50
56771;DHT22;42641;59.794;17.616;2023-05-10T08:04:10;17.20;93.80
56771;DHT22;42641;59.794;17.616;2023-05-10T08:06:37;17.30;93.10
56771;DHT22;42641;59.794;17.616;2023-05-10T08:09:04;17.30;93.10
56771;DHT22;42641;59.794;17.616;2023-05-10T08:11:30;17.50;93.40
56771;DHT22;42641;59.794;17.616;2023-05-10T08:13:57;17.70;93.30
56771;DHT22;42641;59.794;17.616;2023-05-10T08:16:23;17.80;93.00
56771;DHT22;42641;59.794;17.616;2023-05-10T08:18:50;18.00;92.90
56771;DHT22;42641;59.794;17.616;2023-05-10T08:21:17;18.10;92.50
56771;DHT22;42641;59.794;17.616;2023-05-10T08:23:44;18.20;91.50
56771;DHT22;42641;59.794;17.616;2023-05-10T08:26:10;18.30;91.40
56771;DHT22;42641;59.794;17.616;2023-05-10T08:28:37;18.50;90.70
56771;DHT22;42641;59.794;17.616;2023-05-10T08:31:04;18.60;90.00
56771;DHT22;42641;59.794;17.616;2023-05-10T08:33:31;18.80;88.30
56771;DHT22;42641;59.794;17.616;2023-05-10T08:35:57;18.90;87.30
56771;DHT22;42641;59.794;17.616;2023-05-10T08:38:24;19.10;86.70
56771;DHT22;42641;59.794;17.616;2023-05-10T08:40:54;19.20;86.70
56771;DHT22;42641;59.794;17.616;2023-05-10T08:43:28;19.30;86.50
56771;DHT22;42641;59.794;17.616;2023-05-10T08:46:00;19.50;86.30
56771;DHT22;42641;59.794;17.616;2023-05-10T08:48:29;19.50;86.20
56771;DHT22;42641;59.794;17.616;2023-05-10T08:50:58;19.50;86.70
56771;DHT22;42641;59.794;17.616;2023-05-10T08:53:27;19.50;85.60
56771;DHT22;42641;59.794;17.616;2023-05-10T08:55:55;19.50;86.60
56771;DHT22;42641;59.794;17.616;2023-05-10T08:58:21;19.50;85.70
56771;DHT22;42641;59.794;17.616;2023-05-10T09:00:49;19.60;84.60
56771;DHT22;42641;59.794;17.616;2023-05-10T09:03:18;19.70;84.20
56771;DHT22;42641;59.794;17.616;2023-05-10T09:05:45;19.70;86.40
56771;DHT22;42641;59.794;17.616;2023-05-10T09:08:14;19.70;83.70
56771;DHT22;42641;59.794;17.616;2023-05-10T09:10:44;19.80;82.70
56771;DHT22;42641;59.794;17.616;2023-05-10T09:13:14;19.90;78.80
56771;DHT22;42641;59.794;17.616;2023-05-10T09:15:41;20.00;79.10
56771;DHT22;42641;59.794;17.616;2023-05-10T09:18:08;20.20;75.30
56771;DHT22;42641;59.794;17.616;2023-05-10T09:20:34;20.10;66.60
56771;DHT22;42641;59.794;17.616;2023-05-10T09:23:00;20.10;68.70
56771;DHT22;42641;59.794;17.616;2023-05-10T09:25:27;20.10;71.70
56771;DHT22;42641;59.794;17.616;2023-05-10T09:27:54;20.10;66.70
56771;DHT22;42641;59.794;17.616;2023-05-10T09:30:29;20.20;67.90
56771;DHT22;42641;59.794;17.616;2023-05-10T09:32:56;20.40;71.20
56771;DHT22;42641;59.794;17.616;2023-05-10T09:35:26;20.30;70.30
56771;DHT22;42641;59.794;17.616;2023-05-10T09:37:55;20.30;70.40
56771;DHT22;42641;59.794;17.616;2023-05-10T09:40:26;20.20;69.70
56771;DHT22;42641;59.794;17.616;2023-05-10T09:43:05;20.20;72.50
56771;DHT22;42641;59.794;17.616;2023-05-10T09:45:33;20.30;69.60
56771;DHT22;42641;59.794;17.616;2023-05-10T09:48:01;20.40;66.60
56771;DHT22;42641;59.794;17.616;2023-05-10T09:50:29;20.40;70.40
56771;DHT22;42641;59.794;17.616;2023-05-10T09:55:38;20.70;70.50
56771;DHT22;42641;59.794;17.616;2023-05-10T09:58:06;20.80;74.10
56771;DHT22;42641;59.794;17.616;2023-05-10T10:00:40;20.80;73.50
56771;DHT22;42641;59.794;17.616;2023-05-10T10:03:16;20.80;71.70
56771;DHT22;42641;59.794;17.616;2023-05-10T10:05:43;21.00;73.20
56771;DHT22;42641;59.794;17.616;2023-05-10T10:08:10;21.00;73.90
56771;DHT22;42641;59.794;17.616;2023-05-10T10:10:38;20.90;73.50
56771;DHT22;42641;59.794;17.616;2023-05-10T10:13:06;20.90;74.20
56771;DHT22;42641;59.794;17.616;2023-05-10T10:15:34;21.00;72.90
56771;DHT22;42641;59.794;17.616;2023-05-10T10:18:01;21.10;73.30
56771;DHT22;42641;59.794;17.616;2023-05-10T10:20:29;21.00;72.60
56771;DHT22;42641;59.794;17.616;2023-05-10T10:22:56;21.10;72.30
56771;DHT22;42641;59.794;17.616;2023-05-10T10:25:23;21.10;68.30
56771;DHT22;42641;59.794;17.616;2023-05-10T10:36:08;21.50;69.30
56771;DHT22;42641;59.794;17.616;2023-05-10T10:49:24;22.00;66.20
56771;DHT22;42641;59.794;17.616;2023-05-10T10:52:23;22.00;70.60
56771;DHT22;42641;59.794;17.616;2023-05-10T10:55:00;21.90;67.60
56771;DHT22;42641;59.794;17.616;2023-05-10T10:57:28;22.10;67.20
56771;DHT22;42641;59.794;17.616;2023-05-10T11:00:32;22.30;68.30
56771;DHT22;42641;59.794;17.616;2023-05-10T11:03:07;22.60;67.20
56771;DHT22;42641;59.794;17.616;2023-05-10T11:11:03;24.00;62.50
56771;DHT22;42641;59.794;17.616;2023-05-10T11:13:44;24.50;59.20
56771;DHT22;42641;59.794;17.616;2023-05-10T11:16:19;24.90;60.10
56771;DHT22;42641;59.794;17.616;2023-05-10T11:19:02;25.30;60.60
56771;DHT22;42641;59.794;17.616;2023-05-10T11:21:30;25.50;60.30
56771;DHT22;42641;59.794;17.616;2023-05-10T11:23:58;25.80;60.90
56771;DHT22;42641;59.794;17.616;2023-05-10T11:26:30;26.10;57.70
56771;DHT22;42641;59.794;17.616;2023-05-10T11:28:57;26.40;59.10
56771;DHT22;42641;59.794;17.616;2023-05-10T11:31:25;26.50;55.70
56771;DHT22;42641;59.794;17.616;2023-05-10T11:33:55;26.50;55.70
56771;DHT22;42641;59.794;17.616;2023-05-10T11:36:25;26.70;56.70
56771;DHT22;42641;59.794;17.616;2023-05-10T11:38:52;26.70;54.80
56771;DHT22;42641;59.794;17.616;2023-05-10T11:41:20;26.70;55.90
56771;DHT22;42641;59.794;17.616;2023-05-10T11:43:51;26.70;56.00
56771;DHT22;42641;59.794;17.616;2023-05-10T11:46:19;27.00;54.20
56771;DHT22;42641;59.794;17.616;2023-05-10T11:48:51;27.10;53.60
56771;DHT22;42641;59.794;17.616;2023-05-10T11:51:24;27.40;54.50
56771;DHT22;42641;59.794;17.616;2023-05-10T11:53:54;27.10;51.30
56771;DHT22;42641;59.794;17.616;2023-05-10T11:56:21;26.80;53.80
56771;DHT22;42641;59.794;17.616;2023-05-10T11:58:55;26.80;54.00
56771;DHT22;42641;59.794;17.616;2023-05-10T12:01:22;26.80;52.40
56771;DHT22;42641;59.794;17.616;2023-05-10T12:03:50;26.80;51.80
56771;DHT22;42641;59.794;17.616;2023-05-10T12:06:18;26.80;50.80
56771;DHT22;42641;59.794;17.616;2023-05-10T12:08:47;26.80;52.70
56771;DHT22;42641;59.794;17.616;2023-05-10T12:11:14;26.90;49.00
56771;DHT22;42641;59.794;17.616;2023-05-10T12:13:44;26.80;48.90
56771;DHT22;42641;59.794;17.616;2023-05-10T12:16:19;27.00;52.60
56771;DHT22;42641;59.794;17.616;2023-05-10T12:18:50;27.10;50.80
56771;DHT22;42641;59.794;17.616;2023-05-10T12:21:20;27.10;52.50
56771;DHT22;42641;59.794;17.616;2023-05-10T12:23:50;27.10;50.70
56771;DHT22;42641;59.794;17.616;2023-05-10T12:26:18;27.10;51.70
56771;DHT22;42641;59.794;17.616;2023-05-10T12:28:47;27.40;52.50
56771;DHT22;42641;59.794;17.616;2023-05-10T12:31:14;27.60;49.80
56771;DHT22;42641;59.794;17.616;2023-05-10T12:33:43;27.60;51.30
56771;DHT22;42641;59.794;17.616;2023-05-10T12:36:11;27.60;49.90
56771;DHT22;42641;59.794;17.616;2023-05-10T12:38:42;27.20;50.10
56771;DHT22;42641;59.794;17.616;2023-05-10T12:41:11;27.20;50.40
56771;DHT22;42641;59.794;17.616;2023-05-10T12:43:38;27.00;50.80
56771;DHT22;42641;59.794;17.616;2023-05-10T12:46:12;26.90;49.70
56771;DHT22;42641;59.794;17.616;2023-05-10T12:48:40;27.00;48.90
56771;DHT22;42641;59.794;17.616;2023-05-10T12:51:07;27.10;49.00
56771;DHT22;42641;59.794;17.616;2023-05-10T12:53:36;27.10;49.70
56771;DHT22;42641;59.794;17.616;2023-05-10T12:56:02;27.10;48.50
56771;DHT22;42641;59.794;17.616;2023-05-10T12:58:29;27.30;51.00
56771;DHT22;42641;59.794;17.616;2023-05-10T13:00:56;27.50;51.60
56771;DHT22;42641;59.794;17.616;2023-05-10T13:03:23;27.50;51.40
56771;DHT22;42641;59.794;17.616;2023-05-10T13:05:49;27.50;47.90
56771;DHT22;42641;59.794;17.616;2023-05-10T13:08:16;27.70;50.70
56771;DHT22;42641;59.794;17.616;2023-05-10T13:10:43;27.70;49.90
56771;DHT22;42641;59.794;17.616;2023-05-10T13:13:10;27.70;49.60
56771;DHT22;42641;59.794;17.616;2023-05-10T13:15:37;27.20;47.90
56771;DHT22;42641;59.794;17.616;2023-05-10T13:18:03;27.10;50.80
56771;DHT22;42641;59.794;17.616;2023-05-10T13:20:29;27.60;51.20
56771;DHT22;42641;59.794;17.616;2023-05-10T13:22:56;27.90;50.10
56771;DHT22;42641;59.794;17.616;2023-05-10T13:25:22;28.00;50.60
56771;DHT22;42641;59.794;17.616;2023-05-10T13:27:49;28.00;49.40
56771;DHT22;42641;59.794;17.616;2023-05-10T13:30:16;27.80;49.10
56771;DHT22;42641;59.794;17.616;2023-05-10T13:32:42;28.00;51.00
56771;DHT22;42641;59.794;17.616;2023-05-10T13:35:09;27.90;50.10
56771;DHT22;42641;59.794;17.616;2023-05-10T13:37:35;27.60;48.80
56771;DHT22;42641;59.794;17.616;2023-05-10T13:40:03;27.70;49.30
56771;DHT22;42641;59.794;17.616;2023-05-10T13:42:31;27.90;48.00
56771;DHT22;42641;59.794;17.616;2023-05-10T13:45:00;27.90;48.20
56771;DHT22;42641;59.794;17.616;2023-05-10T13:47:28;27.80;49.60
56771;DHT22;42641;59.794;17.616;2023-05-10T13:49:54;27.50;50.10
56771;DHT22;42641;59.794;17.616;2023-05-10T13:52:21;27.50;49.20
56771;DHT22;42641;59.794;17.616;2023-05-10T13:54:47;27.40;49.60
56771;DHT22;42641;59.794;17.616;2023-05-10T13:57:14;27.10;49.40
56771;DHT22;42641;59.794;17.616;2023-05-10T13:59:42;27.40;52.50
56771;DHT22;42641;59.794;17.616;2023-05-10T14:02:09;27.90;49.90
56771;DHT22;42641;59.794;17.616;2023-05-10T14:04:35;28.20;49.20
56771;DHT22;42641;59.794;17.616;2023-05-10T14:07:01;28.10;48.50
56771;DHT22;42641;59.794;17.616;2023-05-10T14:09:28;28.10;47.80
56771;DHT22;42641;59.794;17.616;2023-05-10T14:11:54;28.00;47.50
56771;DHT22;42641;59.794;17.616;2023-05-10T14:14:21;27.90;47.30
56771;DHT22;42641;59.794;17.616;2023-05-10T14:16:48;28.00;47.20
56771;DHT22;42641;59.794;17.616;2023-05-10T14:19:14;28.00;47.40
56771;DHT22;42641;59.794;17.616;2023-05-10T14:21:41;27.80;46.20
56771;DHT22;42641;59.794;17.616;2023-05-10T14:24:07;27.80;46.60
56771;DHT22;42641;59.794;17.616;2023-05-10T14:26:34;27.80;46.20
56771;DHT22;42641;59.794;17.616;2023-05-10T14:29:00;27.80;45.50
56771;DHT22;42641;59.794;17.616;2023-05-10T14:31:27;27.80;46.20
56771;DHT22;42641;59.794;17.616;2023-05-10T14:33:56;27.90;47.90
56771;DHT22;42641;59.794;17.616;2023-05-10T14:36:23;27.80;47.20
56771;DHT22;42641;59.794;17.616;2023-05-10T14:38:50;27.90;46.60
56771;DHT22;42641;59.794;17.616;2023-05-10T14:41:17;28.00;46.40
56771;DHT22;42641;59.794;17.616;2023-05-10T14:43:43;28.10;46.30
56771;DHT22;42641;59.794;17.616;2023-05-10T14:46:10;28.20;46.20
56771;DHT22;42641;59.794;17.616;2023-05-10T14:48:37;28.10;47.20
56771;DHT22;42641;59.794;17.616;2023-05-10T14:51:03;28.10;47.30
56771;DHT22;42641;59.794;17.616;2023-05-10T14:53:30;28.10;46.90
56771;DHT22;42641;59.794;17.616;2023-05-10T14:55:56;28.10;47.50
56771;DHT22;42641;59.794;17.616;2023-05-10T14:58:23;28.00;47.40
56771;DHT22;42641;59.794;17.616;2023-05-10T15:00:49;27.90;45.70
56771;DHT22;42641;59.794;17.616;2023-05-10T15:03:16;27.90;46.60
56771;DHT22;42641;59.794;17.616;2023-05-10T15:05:43;27.70;47.90
56771;DHT22;42641;59.794;17.616;2023-05-10T15:08:09;27.30;47.30
56771;DHT22;42641;59.794;17.616;2023-05-10T15:10:35;27.10;44.90
56771;DHT22;42641;59.794;17.616;2023-05-10T15:13:03;27.10;46.50
56771;DHT22;42641;59.794;17.616;2023-05-10T15:15:30;26.90;46.20
56771;DHT22;42641;59.794;17.616;2023-05-10T15:17:56;27.00;48.20
56771;DHT22;42641;59.794;17.616;2023-05-10T15:20:23;27.20;48.10
56771;DHT22;42641;59.794;17.616;2023-05-10T15:22:49;27.40;48.10
56771;DHT22;42641;59.794;17.616;2023-05-10T15:25:16;27.60;48.20
56771;DHT22;42641;59.794;17.616;2023-05-10T15:27:42;27.50;48.10
56771;DHT22;42641;59.794;17.616;2023-05-10T15:30:10;27.20;46.30
56771;DHT22;42641;59.794;17.616;2023-05-10T15:32:37;27.10;46.00
56771;DHT22;42641;59.794;17.616;2023-05-10T15:35:07;26.90;46.20
56771;DHT22;42641;59.794;17.616;2023-05-10T15:37:33;26.70;45.30
56771;DHT22;42641;59.794;17.616;2023-05-10T15:40:00;26.60;47.60
56771;DHT22;42641;59.794;17.616;2023-05-10T15:42:31;26.80;47.80
56771;DHT22;42641;59.794;17.616;2023-05-10T15:44:58;26.80;47.80
56771;DHT22;42641;59.794;17.616;2023-05-10T15:47:25;26.50;47.70
56771;DHT22;42641;59.794;17.616;2023-05-10T15:49:52;26.30;47.10
56771;DHT22;42641;59.794;17.616;2023-05-10T15:52:18;25.90;46.40
56771;DHT22;42641;59.794;17.616;2023-05-10T15:54:46;25.80;48.30
56771;DHT22;42641;59.794;17.616;2023-05-10T15:57:12;25.70;47.70
56771;DHT22;42641;59.794;17.616;2023-05-10T15:59:39;25.40;47.80
56771;DHT22;42641;59.794;17.616;2023-05-10T16:02:06;25.00;47.30
56771;DHT22;42641;59.794;17.616;2023-05-10T16:04:33;24.30;47.80
56771;DHT22;42641;59.794;17.616;2023-05-10T16:07:00;23.70;50.20
56771;DHT22;42641;59.794;17.616;2023-05-10T16:09:26;23.10;51.40
56771;DHT22;42641;59.794;17.616;2023-05-10T16:11:53;22.60;49.20